createdAt,value
2023-04-01T00:01:41.110Z,5.60
2023-04-01T00:04:16.960Z,5.55
2023-04-01T00:06:49.970Z,5.15
2023-04-01T00:09:17.540Z,5.30
2023-04-01T00:11:46.437Z,6.00
2023-04-01T00:14:15.624Z,5.50
2023-04-01T00:16:43.071Z,6.10
2023-04-01T00:19:10.941Z,5.45
2023-04-01T00:21:39.467Z,5.05
2023-04-01T00:24:09.957Z,5.35
2023-04-01T00:26:47.016Z,5.15
2023-04-01T00:29:17.539Z,6.70
2023-04-01T00:31:44.910Z,6.38
2023-04-01T00:34:13.424Z,7.38
2023-04-01T00:36:40.881Z,6.30
2023-04-01T00:39:08.999Z,7.10
2023-04-01T00:41:37.838Z,5.85
2023-04-01T00:44:27.394Z,6.95
2023-04-01T00:46:56.779Z,5.35
2023-04-01T00:49:33.371Z,4.97
2023-04-01T00:52:02.546Z,6.10
2023-04-01T00:54:31.766Z,6.00
2023-04-01T00:57:01.365Z,5.88
2023-04-01T00:59:31.589Z,4.63
2023-04-01T01:01:59.217Z,5.18
2023-04-01T01:04:35.198Z,5.63
2023-04-01T01:07:36.524Z,4.82
2023-04-01T01:10:10.193Z,5.95
2023-04-01T01:13:17.592Z,5.32
2023-04-01T01:15:54.724Z,5.07
2023-04-01T01:18:37.208Z,5.40
2023-04-01T01:21:18.814Z,5.45
2023-04-01T01:24:08.175Z,5.25
2023-04-01T01:26:45.720Z,4.65
2023-04-01T01:29:31.738Z,4.70
2023-04-01T01:32:30.896Z,5.93
2023-04-01T01:35:26.344Z,4.93
2023-04-01T01:38:02.248Z,5.10
2023-04-01T01:40:35.191Z,5.07
2023-04-01T01:43:10.996Z,4.63
2023-04-01T01:45:44.403Z,5.03
2023-04-01T01:48:13.528Z,5.03
2023-04-01T01:50:42.891Z,7.55
2023-04-01T01:53:14.176Z,7.78
2023-04-01T01:55:44.872Z,9.45
2023-04-01T01:58:20.717Z,11.13
2023-04-01T02:01:02.693Z,9.90
2023-04-01T02:03:35.608Z,9.27
2023-04-01T02:06:08.466Z,20.17
2023-04-01T02:08:55.076Z,18.40
2023-04-01T02:11:31.514Z,17.10
2023-04-01T02:14:22.828Z,8.88
2023-04-01T02:16:59.536Z,5.80
2023-04-01T02:19:32.591Z,6.53
2023-04-01T02:22:04.917Z,8.75
2023-04-01T02:24:36.226Z,8.85
2023-04-01T02:27:05.030Z,11.50
2023-04-01T02:29:34.499Z,9.88
2023-04-01T02:32:06.037Z,14.73
2023-04-01T02:34:36.781Z,14.30
2023-04-01T02:37:04.554Z,12.60
2023-04-01T02:39:34.585Z,8.52
2023-04-01T02:42:02.498Z,7.00
2023-04-01T02:44:30.708Z,6.43
2023-04-01T02:47:00.460Z,6.45
2023-04-01T02:49:28.143Z,6.25
2023-04-01T02:51:56.454Z,6.40
2023-04-01T02:54:24.045Z,6.18
2023-04-01T02:56:51.339Z,6.63
2023-04-01T02:59:21.573Z,6.28
2023-04-01T03:01:49.073Z,8.25
2023-04-01T03:04:17.785Z,9.55
2023-04-01T03:06:46.408Z,12.23
2023-04-01T03:09:14.331Z,12.95
2023-04-01T03:11:43.167Z,12.00
2023-04-01T03:14:10.920Z,12.85
2023-04-01T03:16:39.677Z,15.07
2023-04-01T03:19:07.914Z,12.35
2023-04-01T03:21:35.790Z,12.85
2023-04-01T03:24:07.492Z,12.73
2023-04-01T03:26:36.141Z,11.45
2023-04-01T03:29:03.811Z,11.43
2023-04-01T03:31:32.711Z,11.30
2023-04-01T03:34:02.051Z,11.27
2023-04-01T03:36:30.431Z,10.85
2023-04-01T03:38:58.812Z,9.20
2023-04-01T03:41:39.120Z,8.90
2023-04-01T03:44:07.583Z,8.82
2023-04-01T03:46:36.440Z,8.98
2023-04-01T03:49:12.394Z,8.13
2023-04-01T03:51:41.009Z,6.80
2023-04-01T03:54:09.777Z,6.70
2023-04-01T03:56:38.511Z,6.45
2023-04-01T03:59:08.527Z,11.38
2023-04-01T04:01:54.457Z,8.88
2023-04-01T04:04:22.834Z,7.75
2023-04-01T04:06:52.334Z,7.38
2023-04-01T04:09:26.609Z,6.53
2023-04-01T04:11:55.044Z,7.15
2023-04-01T04:14:23.918Z,6.30
2023-04-01T04:16:52.626Z,5.53
2023-04-01T04:19:23.131Z,6.57
2023-04-01T04:21:50.656Z,5.80
2023-04-01T04:24:20.652Z,8.88
2023-04-01T04:27:01.984Z,14.68
2023-04-01T04:29:36.278Z,15.43
2023-04-01T04:32:31.194Z,14.00
2023-04-01T04:35:23.776Z,12.05
2023-04-01T04:37:51.936Z,10.32
2023-04-01T04:40:21.099Z,10.88
2023-04-01T04:42:52.701Z,11.63
2023-04-01T04:45:22.397Z,6.90
2023-04-01T04:48:02.996Z,8.00
2023-04-01T04:50:34.704Z,8.07
2023-04-01T04:53:03.091Z,9.75
2023-04-01T04:55:32.937Z,6.05
2023-04-01T04:58:39.949Z,7.40
2023-04-01T05:01:12.467Z,7.38
2023-04-01T05:03:40.981Z,10.52
2023-04-01T05:06:10.071Z,9.48
2023-04-01T05:08:38.544Z,11.73
2023-04-01T05:11:14.010Z,12.23
2023-04-01T05:13:44.405Z,10.70
2023-04-01T05:16:15.738Z,29.05
2023-04-01T05:18:45.530Z,68.75
2023-04-01T05:21:14.725Z,118.38
2023-04-01T05:23:42.467Z,42.97
2023-04-01T05:26:14.326Z,25.75
2023-04-01T05:28:42.908Z,11.70
2023-04-01T05:31:10.956Z,8.90
2023-04-01T05:33:41.880Z,10.75
2023-04-01T05:36:17.323Z,21.95
2023-04-01T05:38:50.105Z,13.32
2023-04-01T05:41:19.191Z,13.35
2023-04-01T05:43:48.611Z,9.32
2023-04-01T05:46:44.885Z,8.68
2023-04-01T05:49:20.078Z,9.32
2023-04-01T05:51:48.540Z,8.27
2023-04-01T05:54:19.509Z,8.82
2023-04-01T05:56:49.057Z,8.98
2023-04-01T05:59:18.583Z,11.48
2023-04-01T06:01:46.750Z,11.63
2023-04-01T06:04:17.870Z,8.48
2023-04-01T06:06:46.599Z,12.02
2023-04-01T06:09:20.500Z,11.00
2023-04-01T06:12:08.971Z,6.97
2023-04-01T06:15:29.928Z,7.68
2023-04-01T06:18:39.777Z,9.73
2023-04-01T06:21:23.904Z,16.77
2023-04-01T06:24:16.841Z,16.42
2023-04-01T06:27:45.522Z,17.58
2023-04-01T06:30:28.919Z,11.65
2023-04-01T06:33:04.134Z,9.52
2023-04-01T06:36:09.692Z,10.23
2023-04-01T06:39:08.403Z,8.50
2023-04-01T06:42:00.114Z,52.50
2023-04-01T06:44:50.957Z,10.88
2023-04-01T06:47:57.082Z,11.30
2023-04-01T06:51:05.812Z,9.60
2023-04-01T06:54:11.983Z,10.30
2023-04-01T06:57:06.911Z,10.45
2023-04-01T06:59:43.405Z,8.02
2023-04-01T07:02:34.112Z,10.73
2023-04-01T07:05:12.068Z,14.55
2023-04-01T07:07:49.894Z,13.48
2023-04-01T07:10:32.492Z,10.50
2023-04-01T07:14:20.508Z,12.95
2023-04-01T07:17:34.504Z,14.52
2023-04-01T07:23:30.875Z,12.23
2023-04-01T07:26:29.310Z,11.00
2023-04-01T07:29:20.307Z,17.50
2023-04-01T07:32:38.978Z,17.05
2023-04-01T07:35:29.637Z,14.55
2023-04-01T07:38:38.318Z,13.05
2023-04-01T07:41:23.949Z,11.60
2023-04-01T07:44:14.219Z,12.18
2023-04-01T07:46:55.321Z,10.95
2023-04-01T07:49:38.004Z,8.95
2023-04-01T07:52:21.774Z,9.40
2023-04-01T07:55:32.515Z,10.98
2023-04-01T07:58:07.910Z,14.55
2023-04-01T08:01:04.327Z,12.13
2023-04-01T08:04:25.990Z,12.55
2023-04-01T08:07:26.327Z,9.32
2023-04-01T08:10:52.847Z,9.82
2023-04-01T08:14:28.731Z,8.10
2023-04-01T08:17:34.617Z,7.53
2023-04-01T08:20:44.509Z,8.75
2023-04-01T08:23:33.328Z,9.85
2023-04-01T08:26:13.473Z,9.50
2023-04-01T08:28:52.566Z,10.70
2023-04-01T08:31:53.599Z,11.05
2023-04-01T08:34:29.484Z,9.45
2023-04-01T08:37:29.668Z,13.55
2023-04-01T08:40:38.309Z,12.57
2023-04-01T08:44:14.362Z,13.98
2023-04-01T08:47:22.185Z,15.85
2023-04-01T08:50:09.913Z,13.38
2023-04-01T08:56:48.965Z,17.48
2023-04-01T09:04:13.739Z,12.98
2023-04-01T09:07:01.513Z,25.02
2023-04-01T09:13:33.477Z,35.88
2023-04-01T09:17:10.008Z,18.75
2023-04-01T09:20:05.236Z,17.63
2023-04-01T09:23:05.181Z,13.20
2023-04-01T09:26:05.718Z,19.25
2023-04-01T09:32:21.008Z,16.10
2023-04-01T09:35:23.994Z,16.25
2023-04-01T09:38:39.671Z,15.07
2023-04-01T09:41:29.418Z,16.73
2023-04-01T09:44:57.927Z,15.00
2023-04-01T09:48:21.810Z,15.80
2023-04-01T09:51:06.449Z,14.82
2023-04-01T09:53:47.534Z,19.23
2023-04-01T09:57:24.629Z,12.30
2023-04-01T10:00:16.960Z,13.50
2023-04-01T10:03:28.476Z,18.85
2023-04-01T10:06:35.853Z,19.98
2023-04-01T10:09:58.386Z,8.45
2023-04-01T10:12:57.300Z,10.90
2023-04-01T10:15:55.400Z,8.88
2023-04-01T10:18:39.853Z,8.93
2023-04-01T10:21:39.678Z,8.95
2023-04-01T10:24:48.138Z,7.13
2023-04-01T10:27:31.632Z,16.40
2023-04-01T10:30:23.869Z,6.00
2023-04-01T10:33:21.773Z,7.43
2023-04-01T10:36:11.117Z,7.90
2023-04-01T10:39:04.862Z,10.27
2023-04-01T10:42:20.260Z,6.07
2023-04-01T10:45:46.515Z,6.47
2023-04-01T10:48:13.975Z,9.48
2023-04-01T10:50:53.210Z,13.73
2023-04-01T10:53:28.292Z,9.30
2023-04-01T10:56:41.076Z,8.75
2023-04-01T11:00:19.643Z,9.52
2023-04-01T11:03:51.034Z,8.70
2023-04-01T11:06:51.186Z,7.20
2023-04-01T11:09:31.799Z,6.40
2023-04-01T11:12:04.204Z,7.05
2023-04-01T11:14:53.166Z,7.65
2023-04-01T11:17:52.461Z,4.72
2023-04-01T11:20:44.865Z,4.40
2023-04-01T11:23:33.995Z,4.10
2023-04-01T11:27:09.421Z,4.32
2023-04-01T11:30:00.252Z,5.82
2023-04-01T11:32:43.193Z,5.57
2023-04-01T11:35:53.900Z,5.00
2023-04-01T11:38:45.763Z,5.88
2023-04-01T11:42:15.445Z,5.93
2023-04-01T11:48:16.230Z,5.85
2023-04-01T11:50:49.435Z,5.47
2023-04-01T11:53:34.484Z,6.32
2023-04-01T11:56:20.765Z,4.95
2023-04-01T11:59:11.851Z,5.03
2023-04-01T12:01:53.340Z,5.75
2023-04-01T12:04:55.616Z,5.63
2023-04-01T12:08:02.160Z,6.80
2023-04-01T12:10:47.510Z,6.90
2023-04-01T12:16:33.727Z,5.90
2023-04-01T12:19:06.763Z,5.80
2023-04-01T12:21:47.558Z,6.50
2023-04-01T12:24:38.576Z,5.65
2023-04-01T12:28:01.818Z,5.45
2023-04-01T12:30:56.646Z,6.15
2023-04-01T12:34:04.543Z,7.10
2023-04-01T12:40:51.928Z,6.10
2023-04-01T12:43:33.277Z,6.35
2023-04-01T12:46:23.893Z,6.93
2023-04-01T12:49:28.195Z,6.45
2023-04-01T12:52:39.729Z,6.20
2023-04-01T12:55:56.412Z,6.38
2023-04-01T12:58:42.442Z,5.30
2023-04-01T13:02:42.473Z,7.13
2023-04-01T13:05:42.232Z,5.80
2023-04-01T13:08:27.987Z,4.72
2023-04-01T13:11:19.998Z,6.75
2023-04-01T13:14:24.969Z,4.53
2023-04-01T13:17:24.610Z,5.85
2023-04-01T13:20:31.808Z,5.32
2023-04-01T13:24:04.745Z,4.45
2023-04-01T13:26:50.566Z,5.28
2023-04-01T13:29:24.003Z,8.02
2023-04-01T13:32:33.260Z,5.72
2023-04-01T13:36:12.694Z,4.80
2023-04-01T13:38:47.057Z,6.35
2023-04-01T13:41:31.562Z,8.38
2023-04-01T13:44:51.926Z,6.07
2023-04-01T13:48:02.210Z,5.85
2023-04-01T13:50:52.880Z,5.22
2023-04-01T13:53:41.397Z,6.10
2023-04-01T13:56:31.867Z,8.07
2023-04-01T13:59:27.900Z,5.88
2023-04-01T14:02:26.759Z,5.18
2023-04-01T14:05:42.157Z,5.65
2023-04-01T14:11:22.036Z,5.88
2023-04-01T14:14:08.161Z,5.25
2023-04-01T14:17:09.793Z,4.78
2023-04-01T14:20:10.116Z,4.53
2023-04-01T14:22:56.939Z,4.47
2023-04-01T14:25:35.745Z,5.90
2023-04-01T14:28:41.292Z,5.97
2023-04-01T14:31:12.536Z,5.97
2023-04-01T14:34:18.881Z,5.55
2023-04-01T14:37:03.790Z,7.47
2023-04-01T14:39:53.674Z,7.22
2023-04-01T14:42:29.834Z,6.32
2023-04-01T14:45:48.079Z,7.63
2023-04-01T14:48:37.883Z,6.00
2023-04-01T14:51:40.065Z,8.68
2023-04-01T14:54:24.508Z,6.60
2023-04-01T14:57:13.373Z,5.35
2023-04-01T14:59:47.040Z,6.68
2023-04-01T15:02:35.165Z,4.32
2023-04-01T15:05:25.835Z,6.03
2023-04-01T15:08:38.135Z,6.65
2023-04-01T15:11:51.223Z,6.28
2023-04-01T15:14:33.691Z,5.63
2023-04-01T15:17:37.635Z,8.05
2023-04-01T15:25:17.826Z,3.83
2023-04-01T15:25:48.737Z,4.99
2023-04-01T15:26:40.723Z,5.40
2023-04-01T15:27:22.945Z,6.20
2023-04-01T15:35:31.219Z,8.43
2023-04-01T15:38:18.044Z,6.95
2023-04-01T15:40:51.086Z,8.43
2023-04-01T15:43:28.879Z,10.60
2023-04-01T15:46:41.322Z,6.53
2023-04-01T15:49:24.069Z,8.88
2023-04-01T15:52:26.577Z,6.68
2023-04-01T15:55:33.668Z,8.48
2023-04-01T15:58:25.413Z,7.03
2023-04-01T16:01:20.174Z,7.40
2023-04-01T16:04:38.056Z,7.30
2023-04-01T16:07:31.729Z,6.63
2023-04-01T16:10:19.276Z,7.20
2023-04-01T16:17:52.818Z,8.70
2023-04-01T16:20:44.586Z,8.80
2023-04-01T16:23:39.628Z,11.35
2023-04-01T16:26:41.975Z,9.10
2023-04-01T16:29:39.707Z,13.15
2023-04-01T16:32:39.151Z,11.82
2023-04-01T16:35:41.472Z,11.68
2023-04-01T16:38:30.863Z,10.23
2023-04-01T16:42:03.493Z,10.55
2023-04-01T16:45:27.198Z,10.43
2023-04-01T16:48:21.645Z,10.45
2023-04-01T16:51:17.349Z,12.50
2023-04-01T16:53:54.073Z,11.48
2023-04-01T16:56:40.928Z,8.65
2023-04-01T16:59:14.800Z,11.70
2023-04-01T17:02:05.840Z,10.93
2023-04-01T17:04:45.801Z,11.40
2023-04-01T17:08:07.182Z,14.60
2023-04-01T17:10:46.934Z,11.18
2023-04-01T17:13:25.721Z,13.23
2023-04-01T17:16:30.841Z,10.18
2023-04-01T17:19:34.211Z,15.07
2023-04-01T17:22:28.162Z,9.50
2023-04-01T17:25:39.666Z,10.57
2023-04-01T17:28:19.317Z,10.35
2023-04-01T17:31:38.963Z,9.27
2023-04-01T17:34:44.511Z,8.55
2023-04-01T17:37:41.443Z,12.13
2023-04-01T17:40:38.665Z,33.65
2023-04-01T17:43:50.595Z,10.52
2023-04-01T17:46:49.863Z,15.13
2023-04-01T17:49:39.656Z,11.73
2023-04-01T17:52:23.053Z,14.35
2023-04-01T17:54:53.733Z,15.55
2023-04-01T17:57:25.119Z,11.80
2023-04-01T18:00:14.353Z,12.63
2023-04-01T18:03:00.688Z,15.23
2023-04-01T18:06:10.353Z,17.02
2023-04-01T18:09:18.056Z,9.63
2023-04-01T18:12:02.400Z,9.35
2023-04-01T18:15:08.176Z,11.45
2023-04-01T18:17:54.189Z,12.32
2023-04-01T18:21:08.614Z,10.23
2023-04-01T18:24:07.077Z,10.88
2023-04-01T18:27:10.722Z,11.02
2023-04-01T18:30:03.364Z,11.50
2023-04-01T18:32:54.215Z,12.95
2023-04-01T18:36:41.699Z,14.45
2023-04-01T18:40:28.780Z,14.63
2023-04-01T18:43:22.844Z,17.70
2023-04-01T18:46:18.045Z,13.20
2023-04-01T18:52:01.462Z,13.30
2023-04-01T18:54:35.880Z,13.75
2023-04-01T18:57:11.531Z,11.57
2023-04-01T18:59:42.590Z,18.17
2023-04-01T19:02:49.439Z,12.77
2023-04-01T19:05:27.910Z,10.55
2023-04-01T19:07:56.955Z,16.08
2023-04-01T19:11:03.282Z,14.50
2023-04-01T19:13:42.990Z,15.73
2023-04-01T19:16:25.955Z,13.20
2023-04-01T19:19:23.341Z,10.30
2023-04-01T19:22:04.452Z,12.65
2023-04-01T19:25:14.530Z,11.70
2023-04-01T19:27:54.568Z,13.85
2023-04-01T19:30:49.583Z,16.08
2023-04-01T19:33:47.070Z,12.48
2023-04-01T19:36:26.099Z,14.32
2023-04-01T19:39:11.146Z,12.57
2023-04-01T19:42:01.567Z,16.27
2023-04-01T19:44:31.213Z,13.13
2023-04-01T19:47:26.782Z,12.70
2023-04-01T19:50:02.538Z,17.70
2023-04-01T19:52:42.412Z,14.70
2023-04-01T19:55:29.768Z,19.40
2023-04-01T19:58:25.976Z,15.40
2023-04-01T20:01:00.326Z,17.00
2023-04-01T20:04:05.616Z,17.90
2023-04-01T20:07:03.526Z,18.00
2023-04-01T20:10:11.228Z,12.80
2023-04-01T20:13:00.471Z,12.27
2023-04-01T20:15:46.784Z,18.73
2023-04-01T20:18:22.905Z,17.77
2023-04-01T20:21:23.914Z,18.55
2023-04-01T20:24:44.122Z,19.50
2023-04-01T20:27:15.076Z,17.75
2023-04-01T20:30:20.700Z,13.40
2023-04-01T20:33:29.380Z,14.20
2023-04-01T20:36:23.772Z,19.73
2023-04-01T20:39:10.198Z,16.42
2023-04-01T20:42:07.602Z,14.50
2023-04-01T20:44:53.980Z,16.27
2023-04-01T20:48:02.283Z,17.95
2023-04-01T20:50:50.774Z,13.85
2023-04-01T20:53:49.222Z,15.00
2023-04-01T20:56:42.142Z,11.90
2023-04-01T20:59:29.074Z,12.07
2023-04-01T21:02:23.551Z,19.42
2023-04-01T21:05:26.422Z,11.77
2023-04-01T21:08:22.054Z,11.60
2023-04-01T21:11:06.058Z,11.52
2023-04-01T21:13:58.836Z,11.95
2023-04-01T21:16:31.709Z,12.82
2023-04-01T21:19:14.043Z,11.98
2023-04-01T21:22:05.564Z,12.85
2023-04-01T21:34:59.960Z,12.50
2023-04-01T21:37:42.817Z,10.50
2023-04-01T21:40:23.782Z,11.40
2023-04-01T21:43:01.920Z,15.02
2023-04-01T21:45:43.605Z,12.70
2023-04-01T22:37:43.208Z,8.30
2023-04-01T22:40:51.495Z,8.50
2023-04-01T22:43:43.904Z,12.13
2023-04-01T22:46:51.742Z,8.98
2023-04-01T22:49:33.926Z,9.82
2023-04-01T22:52:18.124Z,9.15
2023-04-01T22:54:52.099Z,11.07
2023-04-01T22:57:55.399Z,11.60
2023-04-01T23:00:29.214Z,9.18
2023-04-01T23:03:11.573Z,9.75
2023-04-01T23:05:51.632Z,8.45
2023-04-01T23:08:42.637Z,9.18
2023-04-01T23:11:31.217Z,9.90
2023-04-01T23:14:20.726Z,9.55
2023-04-01T23:16:58.768Z,7.88
2023-04-01T23:19:36.130Z,9.40
2023-04-01T23:22:17.894Z,7.97
2023-04-01T23:24:54.675Z,8.00
2023-04-01T23:27:36.127Z,7.80
2023-04-01T23:30:05.469Z,8.93
2023-04-01T23:32:32.894Z,9.05
2023-04-01T23:35:01.415Z,8.23
2023-04-01T23:37:28.832Z,9.10
2023-04-01T23:39:59.720Z,8.38
2023-04-01T23:42:34.009Z,8.00
2023-04-01T23:45:13.873Z,7.07
2023-04-01T23:47:42.334Z,8.25
2023-04-01T23:50:21.260Z,8.80
2023-04-01T23:53:18.313Z,8.07
2023-04-01T23:55:52.735Z,7.07
2023-04-01T23:58:24.223Z,7.25
